sensor_id;sensor_type;location;lat;lon;timestamp;P1;durP1;ratioP1;P2;durP2;ratioP2
7316;SDS011;3699;51.462;6.696;2023-04-22T00:01:33;16.17;;;10.03;;
7316;SDS011;3699;51.462;6.696;2023-04-22T00:04:00;11.83;;;8.70;;
7316;SDS011;3699;51.462;6.696;2023-04-22T00:06:26;15.00;;;10.63;;
7316;SDS011;3699;51.462;6.696;2023-04-22T00:08:54;13.87;;;9.67;;
7316;SDS011;3699;51.462;6.696;2023-04-22T00:11:21;13.83;;;9.10;;
7316;SDS011;3699;51.462;6.696;2023-04-22T00:13:48;15.33;;;10.13;;
7316;SDS011;3699;51.462;6.696;2023-04-22T00:16:15;16.40;;;9.87;;
7316;SDS011;3699;51.462;6.696;2023-04-22T00:18:41;12.23;;;9.43;;
7316;SDS011;3699;51.462;6.696;2023-04-22T00:21:08;14.13;;;9.20;;
7316;SDS011;3699;51.462;6.696;2023-04-22T00:23:35;13.33;;;9.13;;
7316;SDS011;3699;51.462;6.696;2023-04-22T00:26:03;13.67;;;9.33;;
7316;SDS011;3699;51.462;6.696;2023-04-22T00:28:30;15.17;;;9.33;;
7316;SDS011;3699;51.462;6.696;2023-04-22T00:30:56;13.27;;;8.90;;
7316;SDS011;3699;51.462;6.696;2023-04-22T00:33:23;13.23;;;9.33;;
7316;SDS011;3699;51.462;6.696;2023-04-22T00:35:50;11.27;;;8.80;;
7316;SDS011;3699;51.462;6.696;2023-04-22T00:38:18;12.07;;;9.33;;
7316;SDS011;3699;51.462;6.696;2023-04-22T00:40:46;14.00;;;9.67;;
7316;SDS011;3699;51.462;6.696;2023-04-22T00:43:14;15.23;;;10.27;;
7316;SDS011;3699;51.462;6.696;2023-04-22T00:45:42;14.73;;;10.57;;
7316;SDS011;3699;51.462;6.696;2023-04-22T00:48:09;15.77;;;11.17;;
7316;SDS011;3699;51.462;6.696;2023-04-22T00:50:37;16.20;;;10.97;;
7316;SDS011;3699;51.462;6.696;2023-04-22T00:53:04;17.33;;;10.83;;
7316;SDS011;3699;51.462;6.696;2023-04-22T00:55:31;16.63;;;10.70;;
7316;SDS011;3699;51.462;6.696;2023-04-22T00:57:59;18.80;;;12.43;;
7316;SDS011;3699;51.462;6.696;2023-04-22T01:00:29;17.13;;;10.93;;
7316;SDS011;3699;51.462;6.696;2023-04-22T01:02:56;19.40;;;11.43;;
7316;SDS011;3699;51.462;6.696;2023-04-22T01:05:22;16.87;;;11.73;;
7316;SDS011;3699;51.462;6.696;2023-04-22T01:07:49;18.27;;;12.07;;
7316;SDS011;3699;51.462;6.696;2023-04-22T01:10:17;17.77;;;11.87;;
7316;SDS011;3699;51.462;6.696;2023-04-22T01:12:44;17.13;;;12.27;;
7316;SDS011;3699;51.462;6.696;2023-04-22T01:15:11;16.47;;;12.10;;
7316;SDS011;3699;51.462;6.696;2023-04-22T01:17:39;17.83;;;11.20;;
7316;SDS011;3699;51.462;6.696;2023-04-22T01:20:06;21.53;;;11.70;;
7316;SDS011;3699;51.462;6.696;2023-04-22T01:22:35;17.30;;;11.67;;
7316;SDS011;3699;51.462;6.696;2023-04-22T01:25:07;18.70;;;12.00;;
7316;SDS011;3699;51.462;6.696;2023-04-22T01:27:35;16.13;;;11.63;;
7316;SDS011;3699;51.462;6.696;2023-04-22T01:30:02;16.63;;;11.87;;
7316;SDS011;3699;51.462;6.696;2023-04-22T01:32:30;16.13;;;11.67;;
7316;SDS011;3699;51.462;6.696;2023-04-22T01:34:57;18.37;;;11.87;;
7316;SDS011;3699;51.462;6.696;2023-04-22T01:37:24;15.47;;;11.43;;
7316;SDS011;3699;51.462;6.696;2023-04-22T01:39:51;18.30;;;12.50;;
7316;SDS011;3699;51.462;6.696;2023-04-22T01:42:19;18.50;;;12.30;;
7316;SDS011;3699;51.462;6.696;2023-04-22T01:44:46;16.47;;;11.23;;
7316;SDS011;3699;51.462;6.696;2023-04-22T01:47:13;16.13;;;11.93;;
7316;SDS011;3699;51.462;6.696;2023-04-22T01:49:39;18.27;;;12.47;;
7316;SDS011;3699;51.462;6.696;2023-04-22T01:52:06;20.07;;;12.30;;
7316;SDS011;3699;51.462;6.696;2023-04-22T01:54:33;16.30;;;10.90;;
7316;SDS011;3699;51.462;6.696;2023-04-22T01:57:01;17.60;;;12.33;;
7316;SDS011;3699;51.462;6.696;2023-04-22T01:59:35;16.70;;;12.17;;
7316;SDS011;3699;51.462;6.696;2023-04-22T02:02:02;19.33;;;12.77;;
7316;SDS011;3699;51.462;6.696;2023-04-22T02:04:28;19.47;;;12.33;;
7316;SDS011;3699;51.462;6.696;2023-04-22T02:06:55;20.50;;;12.77;;
7316;SDS011;3699;51.462;6.696;2023-04-22T02:09:22;17.17;;;11.73;;
7316;SDS011;3699;51.462;6.696;2023-04-22T02:11:48;18.90;;;12.77;;
7316;SDS011;3699;51.462;6.696;2023-04-22T02:14:15;21.33;;;12.93;;
7316;SDS011;3699;51.462;6.696;2023-04-22T02:16:43;17.80;;;11.87;;
7316;SDS011;3699;51.462;6.696;2023-04-22T02:19:10;15.93;;;11.67;;
7316;SDS011;3699;51.462;6.696;2023-04-22T02:21:37;19.07;;;12.23;;
7316;SDS011;3699;51.462;6.696;2023-04-22T02:24:04;18.43;;;11.77;;
7316;SDS011;3699;51.462;6.696;2023-04-22T02:26:31;16.50;;;12.33;;
7316;SDS011;3699;51.462;6.696;2023-04-22T02:28:58;17.93;;;11.93;;
7316;SDS011;3699;51.462;6.696;2023-04-22T02:31:25;16.23;;;12.03;;
7316;SDS011;3699;51.462;6.696;2023-04-22T02:33:53;17.83;;;12.60;;
7316;SDS011;3699;51.462;6.696;2023-04-22T02:36:19;16.73;;;11.50;;
7316;SDS011;3699;51.462;6.696;2023-04-22T02:38:47;14.43;;;11.23;;
7316;SDS011;3699;51.462;6.696;2023-04-22T02:41:14;15.97;;;11.10;;
7316;SDS011;3699;51.462;6.696;2023-04-22T02:43:41;17.47;;;11.70;;
7316;SDS011;3699;51.462;6.696;2023-04-22T02:46:10;17.90;;;11.03;;
7316;SDS011;3699;51.462;6.696;2023-04-22T02:48:37;17.50;;;11.33;;
7316;SDS011;3699;51.462;6.696;2023-04-22T02:51:05;17.63;;;10.63;;
7316;SDS011;3699;51.462;6.696;2023-04-22T02:53:32;15.43;;;10.83;;
7316;SDS011;3699;51.462;6.696;2023-04-22T02:55:59;16.00;;;11.13;;
7316;SDS011;3699;51.462;6.696;2023-04-22T02:58:25;16.63;;;11.20;;
7316;SDS011;3699;51.462;6.696;2023-04-22T03:00:52;14.70;;;10.30;;
7316;SDS011;3699;51.462;6.696;2023-04-22T03:03:20;13.17;;;10.83;;
7316;SDS011;3699;51.462;6.696;2023-04-22T03:05:47;13.20;;;10.17;;
7316;SDS011;3699;51.462;6.696;2023-04-22T03:08:15;15.70;;;11.00;;
7316;SDS011;3699;51.462;6.696;2023-04-22T03:10:42;14.97;;;10.80;;
7316;SDS011;3699;51.462;6.696;2023-04-22T03:13:08;15.50;;;10.30;;
7316;SDS011;3699;51.462;6.696;2023-04-22T03:15:35;21.27;;;11.33;;
7316;SDS011;3699;51.462;6.696;2023-04-22T03:18:02;17.27;;;11.47;;
7316;SDS011;3699;51.462;6.696;2023-04-22T03:20:29;24.97;;;13.07;;
7316;SDS011;3699;51.462;6.696;2023-04-22T03:22:55;19.80;;;12.03;;
7316;SDS011;3699;51.462;6.696;2023-04-22T03:25:23;19.97;;;12.10;;
7316;SDS011;3699;51.462;6.696;2023-04-22T03:27:50;18.50;;;11.87;;
7316;SDS011;3699;51.462;6.696;2023-04-22T03:30:17;17.87;;;11.97;;
7316;SDS011;3699;51.462;6.696;2023-04-22T03:32:43;14.93;;;11.40;;
7316;SDS011;3699;51.462;6.696;2023-04-22T03:35:10;18.53;;;12.03;;
7316;SDS011;3699;51.462;6.696;2023-04-22T03:37:37;18.70;;;11.10;;
7316;SDS011;3699;51.462;6.696;2023-04-22T03:40:05;22.00;;;12.23;;
7316;SDS011;3699;51.462;6.696;2023-04-22T03:42:34;20.03;;;12.23;;
7316;SDS011;3699;51.462;6.696;2023-04-22T03:45:01;21.10;;;12.60;;
7316;SDS011;3699;51.462;6.696;2023-04-22T03:47:28;21.83;;;13.23;;
7316;SDS011;3699;51.462;6.696;2023-04-22T03:49:55;20.53;;;11.93;;
7316;SDS011;3699;51.462;6.696;2023-04-22T03:52:22;21.30;;;13.23;;
7316;SDS011;3699;51.462;6.696;2023-04-22T03:54:49;25.13;;;12.80;;
7316;SDS011;3699;51.462;6.696;2023-04-22T03:57:15;25.43;;;12.53;;
7316;SDS011;3699;51.462;6.696;2023-04-22T03:59:43;22.50;;;13.00;;
7316;SDS011;3699;51.462;6.696;2023-04-22T04:02:10;16.97;;;11.77;;
7316;SDS011;3699;51.462;6.696;2023-04-22T04:04:37;20.33;;;11.20;;
7316;SDS011;3699;51.462;6.696;2023-04-22T04:07:03;20.83;;;11.87;;
7316;SDS011;3699;51.462;6.696;2023-04-22T04:09:32;17.17;;;11.47;;
7316;SDS011;3699;51.462;6.696;2023-04-22T04:11:59;24.30;;;12.57;;
7316;SDS011;3699;51.462;6.696;2023-04-22T04:14:27;28.20;;;13.47;;
7316;SDS011;3699;51.462;6.696;2023-04-22T04:16:55;25.90;;;14.07;;
7316;SDS011;3699;51.462;6.696;2023-04-22T04:19:22;27.87;;;14.87;;
7316;SDS011;3699;51.462;6.696;2023-04-22T04:21:49;31.40;;;14.93;;
7316;SDS011;3699;51.462;6.696;2023-04-22T04:24:16;25.83;;;14.10;;
7316;SDS011;3699;51.462;6.696;2023-04-22T04:26:43;25.10;;;14.83;;
7316;SDS011;3699;51.462;6.696;2023-04-22T04:29:09;28.67;;;14.30;;
7316;SDS011;3699;51.462;6.696;2023-04-22T04:31:37;24.23;;;14.87;;
7316;SDS011;3699;51.462;6.696;2023-04-22T04:34:05;23.10;;;14.57;;
7316;SDS011;3699;51.462;6.696;2023-04-22T04:36:32;24.97;;;14.40;;
7316;SDS011;3699;51.462;6.696;2023-04-22T04:38:59;24.67;;;14.57;;
7316;SDS011;3699;51.462;6.696;2023-04-22T04:41:26;27.90;;;15.20;;
7316;SDS011;3699;51.462;6.696;2023-04-22T04:43:53;31.00;;;15.50;;
7316;SDS011;3699;51.462;6.696;2023-04-22T04:46:20;27.40;;;15.40;;
7316;SDS011;3699;51.462;6.696;2023-04-22T04:48:47;28.37;;;16.60;;
7316;SDS011;3699;51.462;6.696;2023-04-22T04:51:16;26.80;;;15.37;;
7316;SDS011;3699;51.462;6.696;2023-04-22T04:53:42;28.40;;;15.57;;
7316;SDS011;3699;51.462;6.696;2023-04-22T04:56:09;32.23;;;16.23;;
7316;SDS011;3699;51.462;6.696;2023-04-22T04:58:37;28.10;;;14.80;;
7316;SDS011;3699;51.462;6.696;2023-04-22T05:01:04;28.83;;;16.17;;
7316;SDS011;3699;51.462;6.696;2023-04-22T05:03:31;27.40;;;15.70;;
7316;SDS011;3699;51.462;6.696;2023-04-22T05:05:57;26.63;;;15.27;;
7316;SDS011;3699;51.462;6.696;2023-04-22T05:08:26;26.03;;;14.60;;
7316;SDS011;3699;51.462;6.696;2023-04-22T05:10:52;25.33;;;13.70;;
7316;SDS011;3699;51.462;6.696;2023-04-22T05:13:20;23.87;;;14.03;;
7316;SDS011;3699;51.462;6.696;2023-04-22T05:15:46;22.13;;;12.13;;
7316;SDS011;3699;51.462;6.696;2023-04-22T05:18:13;22.77;;;13.17;;
7316;SDS011;3699;51.462;6.696;2023-04-22T05:20:40;23.50;;;13.37;;
7316;SDS011;3699;51.462;6.696;2023-04-22T05:23:07;18.00;;;12.50;;
7316;SDS011;3699;51.462;6.696;2023-04-22T05:25:35;18.77;;;10.47;;
7316;SDS011;3699;51.462;6.696;2023-04-22T05:28:01;18.53;;;11.10;;
7316;SDS011;3699;51.462;6.696;2023-04-22T05:30:28;14.30;;;10.53;;
7316;SDS011;3699;51.462;6.696;2023-04-22T05:32:55;16.50;;;9.73;;
7316;SDS011;3699;51.462;6.696;2023-04-22T05:35:21;13.10;;;9.90;;
7316;SDS011;3699;51.462;6.696;2023-04-22T05:37:48;14.80;;;10.77;;
7316;SDS011;3699;51.462;6.696;2023-04-22T05:40:15;20.30;;;10.53;;
7316;SDS011;3699;51.462;6.696;2023-04-22T05:42:43;16.60;;;10.83;;
7316;SDS011;3699;51.462;6.696;2023-04-22T05:45:10;14.10;;;10.17;;
7316;SDS011;3699;51.462;6.696;2023-04-22T05:47:37;16.33;;;10.00;;
7316;SDS011;3699;51.462;6.696;2023-04-22T05:50:04;15.23;;;10.23;;
7316;SDS011;3699;51.462;6.696;2023-04-22T05:52:32;13.73;;;9.40;;
7316;SDS011;3699;51.462;6.696;2023-04-22T05:54:58;13.67;;;9.67;;
7316;SDS011;3699;51.462;6.696;2023-04-22T05:57:25;13.13;;;9.60;;
7316;SDS011;3699;51.462;6.696;2023-04-22T05:59:53;14.37;;;10.27;;
7316;SDS011;3699;51.462;6.696;2023-04-22T06:02:20;12.70;;;9.00;;
7316;SDS011;3699;51.462;6.696;2023-04-22T06:04:46;11.60;;;9.27;;
7316;SDS011;3699;51.462;6.696;2023-04-22T06:07:13;12.47;;;9.03;;
7316;SDS011;3699;51.462;6.696;2023-04-22T06:09:40;13.93;;;9.50;;
7316;SDS011;3699;51.462;6.696;2023-04-22T06:12:07;12.57;;;9.70;;
7316;SDS011;3699;51.462;6.696;2023-04-22T06:14:33;12.40;;;8.77;;
7316;SDS011;3699;51.462;6.696;2023-04-22T06:17:01;13.30;;;8.50;;
7316;SDS011;3699;51.462;6.696;2023-04-22T06:19:28;9.80;;;7.57;;
7316;SDS011;3699;51.462;6.696;2023-04-22T06:21:55;11.33;;;7.50;;
7316;SDS011;3699;51.462;6.696;2023-04-22T06:24:22;13.60;;;6.80;;
7316;SDS011;3699;51.462;6.696;2023-04-22T06:26:48;7.80;;;6.47;;
7316;SDS011;3699;51.462;6.696;2023-04-22T06:29:15;8.73;;;6.53;;
7316;SDS011;3699;51.462;6.696;2023-04-22T06:31:42;6.37;;;5.70;;
7316;SDS011;3699;51.462;6.696;2023-04-22T06:34:10;6.33;;;4.90;;
7316;SDS011;3699;51.462;6.696;2023-04-22T06:36:36;7.13;;;4.63;;
7316;SDS011;3699;51.462;6.696;2023-04-22T06:39:04;5.57;;;4.63;;
7316;SDS011;3699;51.462;6.696;2023-04-22T06:41:31;6.17;;;4.23;;
7316;SDS011;3699;51.462;6.696;2023-04-22T06:43:59;5.50;;;4.37;;
7316;SDS011;3699;51.462;6.696;2023-04-22T06:46:25;4.33;;;3.60;;
7316;SDS011;3699;51.462;6.696;2023-04-22T06:48:52;3.77;;;3.47;;
7316;SDS011;3699;51.462;6.696;2023-04-22T06:51:20;4.00;;;3.60;;
7316;SDS011;3699;51.462;6.696;2023-04-22T06:53:47;4.53;;;3.70;;
7316;SDS011;3699;51.462;6.696;2023-04-22T06:56:14;3.87;;;3.47;;
7316;SDS011;3699;51.462;6.696;2023-04-22T06:58:40;3.50;;;2.97;;
7316;SDS011;3699;51.462;6.696;2023-04-22T07:01:07;4.63;;;3.20;;
7316;SDS011;3699;51.462;6.696;2023-04-22T07:03:34;3.80;;;3.13;;
7316;SDS011;3699;51.462;6.696;2023-04-22T07:06:00;3.73;;;2.97;;
7316;SDS011;3699;51.462;6.696;2023-04-22T07:08:29;3.43;;;3.03;;
7316;SDS011;3699;51.462;6.696;2023-04-22T07:10:55;5.47;;;3.20;;
7316;SDS011;3699;51.462;6.696;2023-04-22T07:13:22;5.07;;;3.60;;
7316;SDS011;3699;51.462;6.696;2023-04-22T07:15:51;4.37;;;3.07;;
7316;SDS011;3699;51.462;6.696;2023-04-22T07:18:18;4.00;;;3.20;;
7316;SDS011;3699;51.462;6.696;2023-04-22T07:20:45;3.40;;;2.97;;
7316;SDS011;3699;51.462;6.696;2023-04-22T07:23:11;3.47;;;3.10;;
7316;SDS011;3699;51.462;6.696;2023-04-22T07:25:39;3.93;;;3.60;;
7316;SDS011;3699;51.462;6.696;2023-04-22T07:28:06;3.37;;;3.07;;
7316;SDS011;3699;51.462;6.696;2023-04-22T07:30:33;7.53;;;2.80;;
7316;SDS011;3699;51.462;6.696;2023-04-22T07:32:59;3.20;;;2.90;;
7316;SDS011;3699;51.462;6.696;2023-04-22T07:35:26;3.77;;;3.10;;
7316;SDS011;3699;51.462;6.696;2023-04-22T07:37:53;5.53;;;3.20;;
7316;SDS011;3699;51.462;6.696;2023-04-22T07:40:20;4.40;;;3.17;;
7316;SDS011;3699;51.462;6.696;2023-04-22T07:42:48;4.27;;;3.23;;
7316;SDS011;3699;51.462;6.696;2023-04-22T07:45:15;3.33;;;3.03;;
7316;SDS011;3699;51.462;6.696;2023-04-22T07:47:43;3.33;;;3.10;;
7316;SDS011;3699;51.462;6.696;2023-04-22T07:50:10;3.77;;;3.37;;
7316;SDS011;3699;51.462;6.696;2023-04-22T07:52:37;3.70;;;3.13;;
7316;SDS011;3699;51.462;6.696;2023-04-22T07:55:04;5.03;;;3.20;;
7316;SDS011;3699;51.462;6.696;2023-04-22T07:57:32;4.70;;;3.13;;
7316;SDS011;3699;51.462;6.696;2023-04-22T08:00:04;3.97;;;3.17;;
7316;SDS011;3699;51.462;6.696;2023-04-22T08:02:32;4.27;;;3.20;;
7316;SDS011;3699;51.462;6.696;2023-04-22T08:04:59;4.50;;;3.30;;
7316;SDS011;3699;51.462;6.696;2023-04-22T08:07:26;4.87;;;3.40;;
7316;SDS011;3699;51.462;6.696;2023-04-22T08:09:53;4.93;;;2.87;;
7316;SDS011;3699;51.462;6.696;2023-04-22T08:12:21;3.30;;;3.00;;
7316;SDS011;3699;51.462;6.696;2023-04-22T08:14:47;3.70;;;2.90;;
7316;SDS011;3699;51.462;6.696;2023-04-22T08:17:15;3.17;;;2.87;;
7316;SDS011;3699;51.462;6.696;2023-04-22T08:19:45;8.73;;;3.40;;
7316;SDS011;3699;51.462;6.696;2023-04-22T08:22:13;6.20;;;3.70;;
7316;SDS011;3699;51.462;6.696;2023-04-22T08:24:41;7.43;;;4.13;;
7316;SDS011;3699;51.462;6.696;2023-04-22T08:27:08;8.80;;;4.27;;
7316;SDS011;3699;51.462;6.696;2023-04-22T08:29:35;5.73;;;4.00;;
7316;SDS011;3699;51.462;6.696;2023-04-22T08:32:02;5.97;;;3.67;;
7316;SDS011;3699;51.462;6.696;2023-04-22T08:34:30;5.87;;;4.40;;
7316;SDS011;3699;51.462;6.696;2023-04-22T08:36:57;8.37;;;4.10;;
7316;SDS011;3699;51.462;6.696;2023-04-22T08:39:24;5.80;;;4.00;;
7316;SDS011;3699;51.462;6.696;2023-04-22T08:41:51;5.70;;;4.30;;
7316;SDS011;3699;51.462;6.696;2023-04-22T08:44:19;10.10;;;4.20;;
7316;SDS011;3699;51.462;6.696;2023-04-22T08:46:47;6.07;;;4.90;;
7316;SDS011;3699;51.462;6.696;2023-04-22T08:49:14;9.37;;;5.20;;
7316;SDS011;3699;51.462;6.696;2023-04-22T08:51:43;6.90;;;4.17;;
7316;SDS011;3699;51.462;6.696;2023-04-22T08:54:10;10.27;;;5.93;;
7316;SDS011;3699;51.462;6.696;2023-04-22T08:56:38;5.93;;;4.47;;
7316;SDS011;3699;51.462;6.696;2023-04-22T08:59:08;7.83;;;4.27;;
7316;SDS011;3699;51.462;6.696;2023-04-22T09:01:36;9.27;;;4.37;;
7316;SDS011;3699;51.462;6.696;2023-04-22T09:04:04;4.90;;;3.67;;
7316;SDS011;3699;51.462;6.696;2023-04-22T09:06:32;5.93;;;3.57;;
7316;SDS011;3699;51.462;6.696;2023-04-22T09:09:00;5.63;;;3.93;;
7316;SDS011;3699;51.462;6.696;2023-04-22T09:11:27;4.47;;;4.07;;
7316;SDS011;3699;51.462;6.696;2023-04-22T09:13:55;3.87;;;3.10;;
7316;SDS011;3699;51.462;6.696;2023-04-22T09:16:21;5.33;;;3.87;;
7316;SDS011;3699;51.462;6.696;2023-04-22T09:18:48;4.53;;;3.93;;
7316;SDS011;3699;51.462;6.696;2023-04-22T09:21:15;7.43;;;4.53;;
7316;SDS011;3699;51.462;6.696;2023-04-22T09:23:44;6.17;;;4.50;;
7316;SDS011;3699;51.462;6.696;2023-04-22T09:26:13;9.97;;;4.80;;
7316;SDS011;3699;51.462;6.696;2023-04-22T09:28:47;7.77;;;4.67;;
7316;SDS011;3699;51.462;6.696;2023-04-22T09:31:18;5.90;;;4.60;;
7316;SDS011;3699;51.462;6.696;2023-04-22T09:33:47;6.77;;;4.00;;
7316;SDS011;3699;51.462;6.696;2023-04-22T09:36:14;6.60;;;4.10;;
7316;SDS011;3699;51.462;6.696;2023-04-22T09:38:50;6.07;;;3.20;;
7316;SDS011;3699;51.462;6.696;2023-04-22T09:41:19;7.07;;;3.60;;
7316;SDS011;3699;51.462;6.696;2023-04-22T09:43:53;4.83;;;3.30;;
7316;SDS011;3699;51.462;6.696;2023-04-22T09:46:20;3.70;;;3.40;;
7316;SDS011;3699;51.462;6.696;2023-04-22T09:48:48;4.93;;;3.53;;
7316;SDS011;3699;51.462;6.696;2023-04-22T09:51:16;6.00;;;3.30;;
7316;SDS011;3699;51.462;6.696;2023-04-22T09:53:43;3.50;;;3.17;;
7316;SDS011;3699;51.462;6.696;2023-04-22T09:56:10;6.30;;;3.20;;
7316;SDS011;3699;51.462;6.696;2023-04-22T09:58:38;3.63;;;3.20;;
7316;SDS011;3699;51.462;6.696;2023-04-22T10:01:05;3.80;;;3.30;;
7316;SDS011;3699;51.462;6.696;2023-04-22T10:03:32;6.63;;;4.97;;
7316;SDS011;3699;51.462;6.696;2023-04-22T10:05:59;5.87;;;4.17;;
7316;SDS011;3699;51.462;6.696;2023-04-22T10:08:26;10.10;;;4.87;;
7316;SDS011;3699;51.462;6.696;2023-04-22T10:10:53;3.80;;;3.50;;
7316;SDS011;3699;51.462;6.696;2023-04-22T10:13:21;7.27;;;3.97;;
7316;SDS011;3699;51.462;6.696;2023-04-22T10:15:49;5.50;;;4.07;;
7316;SDS011;3699;51.462;6.696;2023-04-22T10:18:19;6.53;;;3.87;;
7316;SDS011;3699;51.462;6.696;2023-04-22T10:20:48;4.27;;;3.87;;
7316;SDS011;3699;51.462;6.696;2023-04-22T10:23:17;6.33;;;5.00;;
7316;SDS011;3699;51.462;6.696;2023-04-22T10:25:46;5.53;;;3.73;;
7316;SDS011;3699;51.462;6.696;2023-04-22T10:28:15;7.00;;;4.23;;
7316;SDS011;3699;51.462;6.696;2023-04-22T10:30:42;7.13;;;4.43;;
7316;SDS011;3699;51.462;6.696;2023-04-22T10:36:08;6.37;;;4.00;;
7316;SDS011;3699;51.462;6.696;2023-04-22T10:38:41;8.47;;;4.50;;
7316;SDS011;3699;51.462;6.696;2023-04-22T10:41:28;6.63;;;4.30;;
7316;SDS011;3699;51.462;6.696;2023-04-22T10:43:56;5.73;;;4.80;;
7316;SDS011;3699;51.462;6.696;2023-04-22T10:49:28;7.70;;;4.47;;
7316;SDS011;3699;51.462;6.696;2023-04-22T10:51:56;5.87;;;3.80;;
7316;SDS011;3699;51.462;6.696;2023-04-22T10:57:27;6.70;;;3.50;;
7316;SDS011;3699;51.462;6.696;2023-04-22T11:02:52;5.93;;;3.70;;
7316;SDS011;3699;51.462;6.696;2023-04-22T11:05:33;7.30;;;3.97;;
7316;SDS011;3699;51.462;6.696;2023-04-22T11:08:00;4.83;;;3.80;;
7316;SDS011;3699;51.462;6.696;2023-04-22T11:10:30;4.03;;;3.33;;
7316;SDS011;3699;51.462;6.696;2023-04-22T11:12:59;5.50;;;3.60;;
7316;SDS011;3699;51.462;6.696;2023-04-22T11:15:27;4.43;;;3.23;;
7316;SDS011;3699;51.462;6.696;2023-04-22T11:17:55;3.77;;;3.10;;
7316;SDS011;3699;51.462;6.696;2023-04-22T11:20:22;4.33;;;3.23;;
7316;SDS011;3699;51.462;6.696;2023-04-22T11:22:51;2.90;;;2.70;;
7316;SDS011;3699;51.462;6.696;2023-04-22T11:25:18;3.87;;;3.00;;
7316;SDS011;3699;51.462;6.696;2023-04-22T11:27:46;9.10;;;3.47;;
7316;SDS011;3699;51.462;6.696;2023-04-22T11:30:14;5.30;;;3.70;;
7316;SDS011;3699;51.462;6.696;2023-04-22T11:32:43;3.57;;;3.27;;
7316;SDS011;3699;51.462;6.696;2023-04-22T11:35:11;9.20;;;3.37;;
7316;SDS011;3699;51.462;6.696;2023-04-22T11:37:39;3.73;;;3.23;;
7316;SDS011;3699;51.462;6.696;2023-04-22T11:40:09;5.50;;;3.60;;
7316;SDS011;3699;51.462;6.696;2023-04-22T11:42:36;5.47;;;3.43;;
7316;SDS011;3699;51.462;6.696;2023-04-22T11:45:04;4.67;;;3.53;;
7316;SDS011;3699;51.462;6.696;2023-04-22T11:47:32;7.30;;;3.10;;
7316;SDS011;3699;51.462;6.696;2023-04-22T11:50:00;5.50;;;3.50;;
7316;SDS011;3699;51.462;6.696;2023-04-22T11:52:41;11.37;;;4.33;;
7316;SDS011;3699;51.462;6.696;2023-04-22T11:55:10;6.03;;;3.50;;
7316;SDS011;3699;51.462;6.696;2023-04-22T11:57:37;6.30;;;3.93;;
7316;SDS011;3699;51.462;6.696;2023-04-22T12:00:05;6.07;;;3.83;;
7316;SDS011;3699;51.462;6.696;2023-04-22T12:02:34;4.53;;;3.57;;
7316;SDS011;3699;51.462;6.696;2023-04-22T12:05:01;5.03;;;3.30;;
7316;SDS011;3699;51.462;6.696;2023-04-22T12:07:28;6.23;;;3.50;;
7316;SDS011;3699;51.462;6.696;2023-04-22T12:09:57;15.37;;;4.63;;
7316;SDS011;3699;51.462;6.696;2023-04-22T12:12:26;4.90;;;3.40;;
7316;SDS011;3699;51.462;6.696;2023-04-22T12:14:53;6.17;;;4.00;;
7316;SDS011;3699;51.462;6.696;2023-04-22T12:17:22;5.70;;;3.80;;
7316;SDS011;3699;51.462;6.696;2023-04-22T12:19:52;6.10;;;4.47;;
7316;SDS011;3699;51.462;6.696;2023-04-22T12:22:23;6.53;;;4.17;;
7316;SDS011;3699;51.462;6.696;2023-04-22T12:24:51;6.53;;;4.13;;
7316;SDS011;3699;51.462;6.696;2023-04-22T12:27:18;5.43;;;3.43;;
7316;SDS011;3699;51.462;6.696;2023-04-22T12:29:51;4.10;;;3.60;;
7316;SDS011;3699;51.462;6.696;2023-04-22T12:32:19;5.87;;;3.40;;
7316;SDS011;3699;51.462;6.696;2023-04-22T12:34:46;6.27;;;3.03;;
7316;SDS011;3699;51.462;6.696;2023-04-22T12:37:12;6.93;;;3.60;;
7316;SDS011;3699;51.462;6.696;2023-04-22T12:39:40;9.03;;;4.30;;
7316;SDS011;3699;51.462;6.696;2023-04-22T12:42:07;8.67;;;3.40;;
7316;SDS011;3699;51.462;6.696;2023-04-22T12:44:34;8.43;;;4.07;;
7316;SDS011;3699;51.462;6.696;2023-04-22T12:47:02;7.17;;;4.17;;
7316;SDS011;3699;51.462;6.696;2023-04-22T12:49:29;6.30;;;3.97;;
7316;SDS011;3699;51.462;6.696;2023-04-22T12:51:56;5.70;;;3.73;;
7316;SDS011;3699;51.462;6.696;2023-04-22T12:54:23;4.07;;;3.67;;
7316;SDS011;3699;51.462;6.696;2023-04-22T12:56:49;6.23;;;3.80;;
7316;SDS011;3699;51.462;6.696;2023-04-22T12:59:16;5.60;;;3.90;;
7316;SDS011;3699;51.462;6.696;2023-04-22T13:01:44;3.90;;;3.27;;
7316;SDS011;3699;51.462;6.696;2023-04-22T13:04:12;9.67;;;4.53;;
7316;SDS011;3699;51.462;6.696;2023-04-22T13:06:39;4.03;;;3.60;;
7316;SDS011;3699;51.462;6.696;2023-04-22T13:09:06;3.97;;;3.57;;
7316;SDS011;3699;51.462;6.696;2023-04-22T13:11:33;5.03;;;3.57;;
7316;SDS011;3699;51.462;6.696;2023-04-22T13:14:00;4.67;;;3.13;;
7316;SDS011;3699;51.462;6.696;2023-04-22T13:16:27;4.40;;;3.47;;
7316;SDS011;3699;51.462;6.696;2023-04-22T13:18:54;13.70;;;3.83;;
7316;SDS011;3699;51.462;6.696;2023-04-22T13:21:23;6.07;;;3.47;;
7316;SDS011;3699;51.462;6.696;2023-04-22T13:23:49;4.30;;;3.47;;
7316;SDS011;3699;51.462;6.696;2023-04-22T13:26:17;4.53;;;3.60;;
7316;SDS011;3699;51.462;6.696;2023-04-22T13:28:44;7.77;;;4.57;;
7316;SDS011;3699;51.462;6.696;2023-04-22T13:31:10;4.90;;;3.70;;
7316;SDS011;3699;51.462;6.696;2023-04-22T13:33:38;9.70;;;4.60;;
7316;SDS011;3699;51.462;6.696;2023-04-22T13:36:04;5.90;;;3.67;;
7316;SDS011;3699;51.462;6.696;2023-04-22T13:38:33;6.17;;;3.90;;
7316;SDS011;3699;51.462;6.696;2023-04-22T13:41:00;6.97;;;4.30;;
7316;SDS011;3699;51.462;6.696;2023-04-22T13:43:27;5.77;;;4.27;;
7316;SDS011;3699;51.462;6.696;2023-04-22T13:45:53;12.07;;;4.17;;
7316;SDS011;3699;51.462;6.696;2023-04-22T13:48:20;6.03;;;4.03;;
7316;SDS011;3699;51.462;6.696;2023-04-22T13:50:47;6.53;;;4.57;;
7316;SDS011;3699;51.462;6.696;2023-04-22T13:53:14;3.63;;;3.33;;
7316;SDS011;3699;51.462;6.696;2023-04-22T13:55:42;6.17;;;3.63;;
7316;SDS011;3699;51.462;6.696;2023-04-22T13:58:09;4.50;;;3.63;;
7316;SDS011;3699;51.462;6.696;2023-04-22T14:00:36;4.90;;;3.93;;
7316;SDS011;3699;51.462;6.696;2023-04-22T14:03:03;4.53;;;3.90;;
7316;SDS011;3699;51.462;6.696;2023-04-22T14:05:30;5.80;;;3.57;;
7316;SDS011;3699;51.462;6.696;2023-04-22T14:07:57;7.57;;;3.43;;
7316;SDS011;3699;51.462;6.696;2023-04-22T14:10:25;4.97;;;3.30;;
7316;SDS011;3699;51.462;6.696;2023-04-22T14:12:53;4.73;;;2.87;;
7316;SDS011;3699;51.462;6.696;2023-04-22T14:15:20;3.13;;;2.60;;
7316;SDS011;3699;51.462;6.696;2023-04-22T14:17:46;4.10;;;2.33;;
7316;SDS011;3699;51.462;6.696;2023-04-22T14:20:13;3.37;;;2.30;;
7316;SDS011;3699;51.462;6.696;2023-04-22T14:22:40;2.83;;;2.40;;
7316;SDS011;3699;51.462;6.696;2023-04-22T14:25:07;3.50;;;2.20;;
7316;SDS011;3699;51.462;6.696;2023-04-22T14:27:34;2.93;;;2.43;;
7316;SDS011;3699;51.462;6.696;2023-04-22T14:30:03;3.13;;;2.83;;
7316;SDS011;3699;51.462;6.696;2023-04-22T14:32:32;4.07;;;2.70;;
7316;SDS011;3699;51.462;6.696;2023-04-22T14:34:59;4.07;;;2.83;;
7316;SDS011;3699;51.462;6.696;2023-04-22T14:37:26;6.10;;;2.57;;
7316;SDS011;3699;51.462;6.696;2023-04-22T14:39:55;6.83;;;3.53;;
7316;SDS011;3699;51.462;6.696;2023-04-22T14:42:22;9.37;;;3.43;;
7316;SDS011;3699;51.462;6.696;2023-04-22T14:44:49;3.53;;;3.23;;
7316;SDS011;3699;51.462;6.696;2023-04-22T14:47:17;5.87;;;3.40;;
7316;SDS011;3699;51.462;6.696;2023-04-22T14:49:44;3.97;;;3.20;;
7316;SDS011;3699;51.462;6.696;2023-04-22T14:52:11;3.23;;;2.93;;
7316;SDS011;3699;51.462;6.696;2023-04-22T14:54:38;3.47;;;3.17;;
7316;SDS011;3699;51.462;6.696;2023-04-22T14:57:05;3.63;;;3.23;;
7316;SDS011;3699;51.462;6.696;2023-04-22T14:59:32;5.03;;;3.07;;
7316;SDS011;3699;51.462;6.696;2023-04-22T15:01:58;4.40;;;3.40;;
7316;SDS011;3699;51.462;6.696;2023-04-22T15:04:27;5.40;;;3.73;;
7316;SDS011;3699;51.462;6.696;2023-04-22T15:06:53;4.80;;;3.70;;
7316;SDS011;3699;51.462;6.696;2023-04-22T15:09:21;4.40;;;3.50;;
7316;SDS011;3699;51.462;6.696;2023-04-22T15:11:49;3.50;;;3.20;;
7316;SDS011;3699;51.462;6.696;2023-04-22T15:14:15;4.13;;;3.73;;
7316;SDS011;3699;51.462;6.696;2023-04-22T15:16:42;5.23;;;3.53;;
7316;SDS011;3699;51.462;6.696;2023-04-22T15:19:09;3.53;;;3.23;;